createdAt,value
2017-05-12T04:43:55.346Z,82.3
2017-05-12T04:44:20.825Z,82.3
2017-05-12T04:44:46.324Z,82.15
2017-05-12T04:45:11.800Z,82.63
2017-05-12T04:45:37.288Z,82.43
2017-05-12T04:46:02.780Z,82.11
2017-05-12T04:46:28.219Z,82.34
2017-05-12T04:46:53.700Z,81.86
2017-05-12T04:47:19.173Z,82.43
2017-05-12T04:47:44.645Z,82.11
2017-05-12T04:48:10.098Z,82.34
2017-05-12T04:48:35.560Z,82.24
2017-05-12T04:49:01.040Z,82.43
2017-05-12T04:49:26.509Z,82.43
2017-05-12T04:49:52.115Z,82.24
2017-05-12T04:50:17.464Z,82.15
2017-05-12T04:50:42.934Z,82.06
2017-05-12T04:51:08.410Z,81.96
2017-05-12T04:51:33.877Z,82.06
2017-05-12T04:51:59.353Z,82.15
2017-05-12T04:52:24.819Z,81.86
2017-05-12T04:52:50.266Z,82.06
2017-05-12T04:53:15.745Z,81.86
2017-05-12T04:53:41.258Z,82.34
2017-05-12T04:54:06.651Z,82.34
2017-05-12T04:54:32.149Z,82.06
2017-05-12T04:54:57.702Z,82.15
2017-05-12T04:55:23.043Z,82.43
2017-05-12T04:55:48.557Z,82.53
2017-05-12T04:56:14.036Z,82.06
2017-05-12T04:56:39.523Z,82.15
2017-05-12T04:57:04.985Z,81.96
2017-05-12T04:57:30.429Z,81.67
2017-05-12T04:57:55.918Z,81.96
2017-05-12T04:58:21.350Z,82.06
2017-05-12T04:58:46.821Z,81.96
2017-05-12T04:59:12.316Z,82.06
2017-05-12T04:59:37.885Z,82.34
2017-05-12T05:00:03.357Z,82.43
2017-05-12T05:00:28.824Z,82.34
2017-05-12T05:00:54.328Z,82.34
2017-05-12T05:01:19.749Z,82.53
2017-05-12T05:01:45.234Z,82.43
2017-05-12T05:02:10.713Z,81.96
2017-05-12T05:02:36.207Z,82.06
2017-05-12T05:03:01.680Z,81.77
2017-05-12T05:03:27.123Z,82.06
2017-05-12T05:03:52.589Z,81.96
2017-05-12T05:04:18.071Z,82.15
2017-05-12T05:04:43.512Z,82.15
2017-05-12T05:05:09.005Z,81.86
2017-05-12T05:05:34.467Z,82.34
2017-05-12T05:05:59.927Z,82.34
2017-05-12T05:06:25.396Z,82.4
2017-05-12T05:06:50.887Z,82.43
2017-05-12T05:07:16.355Z,82.68
2017-05-12T05:07:41.856Z,83.01
2017-05-12T05:08:07.338Z,83.2
2017-05-12T05:08:32.842Z,82.97
2017-05-12T05:08:58.326Z,82.78
2017-05-12T05:09:23.797Z,82.68
2017-05-12T05:09:49.288Z,82.97
2017-05-12T05:10:14.752Z,83.16
2017-05-12T05:10:40.228Z,83.11
2017-05-12T05:11:05.727Z,83.26
2017-05-12T05:11:31.225Z,83.26
2017-05-12T05:11:56.697Z,83.26
2017-05-12T05:12:22.183Z,83.73
2017-05-12T05:12:47.677Z,83.36
2017-05-12T05:13:13.166Z,83.73
2017-05-12T05:13:38.620Z,83.73
2017-05-12T05:14:04.089Z,83.93
2017-05-12T05:14:29.610Z,83.73
2017-05-12T05:14:55.088Z,84.22
2017-05-12T05:15:20.545Z,83.97
2017-05-12T05:15:46.097Z,84.41
2017-05-12T05:16:11.584Z,84.55
2017-05-12T05:16:37.087Z,84.45
2017-05-12T05:17:02.561Z,84.59
2017-05-12T05:17:28.037Z,84.5
2017-05-12T05:17:53.541Z,84.59
2017-05-12T05:18:19.041Z,84.59
2017-05-12T05:18:44.495Z,84.79
2017-05-12T05:19:09.978Z,84.5
2017-05-12T05:19:35.440Z,84.69
2017-05-12T05:20:00.927Z,84.5
2017-05-12T05:20:26.416Z,84.41
2017-05-12T05:20:51.903Z,84.79
2017-05-12T05:21:17.375Z,85.17
2017-05-12T05:21:42.856Z,85.08
2017-05-12T05:22:08.348Z,84.88
2017-05-12T05:22:33.830Z,85.46
2017-05-12T05:22:59.300Z,85.46
2017-05-12T05:23:24.781Z,85.75
2017-05-12T05:23:50.263Z,85.75
2017-05-12T05:24:15.745Z,85.46
2017-05-12T05:24:41.242Z,85.75
2017-05-12T05:25:06.736Z,85.75
2017-05-12T05:25:32.210Z,85.84
2017-05-12T05:25:57.699Z,85.84
2017-05-12T05:26:23.187Z,85.65
2017-05-12T05:26:48.661Z,85.08
2017-05-12T05:27:14.141Z,85.6
2017-05-12T05:27:39.627Z,85.08
2017-05-12T05:28:05.108Z,85.17
2017-05-12T05:28:30.602Z,85.02
2017-05-12T05:28:56.070Z,84.79
2017-05-12T05:29:21.614Z,84.98
2017-05-12T05:29:47.111Z,84.88
2017-05-12T05:30:12.617Z,85.36
2017-05-12T05:30:38.088Z,84.98
2017-05-12T05:31:03.575Z,85.08
2017-05-12T05:31:29.027Z,84.88
2017-05-12T05:31:54.550Z,84.98
2017-05-12T05:32:20.031Z,85.31
2017-05-12T05:32:45.524Z,85.08
2017-05-12T05:33:11.000Z,85.17
2017-05-12T05:33:36.467Z,84.59
2017-05-12T05:34:01.948Z,84.98
2017-05-12T05:34:27.458Z,85.27
2017-05-12T05:34:52.941Z,85.84
2017-05-12T05:35:18.436Z,85.84
2017-05-12T05:35:43.921Z,85.55
2017-05-12T05:36:09.421Z,85.75
2017-05-12T05:36:34.973Z,85.36
2017-05-12T05:37:00.426Z,85.08
2017-05-12T05:37:25.874Z,85.08
2017-05-12T05:37:51.359Z,85.17
2017-05-12T05:38:16.841Z,85.12
2017-05-12T05:38:42.339Z,85.27
2017-05-12T05:39:07.804Z,85.41
2017-05-12T05:39:33.283Z,85.17
2017-05-12T05:39:58.774Z,85.12
2017-05-12T05:40:24.247Z,85.21
2017-05-12T05:40:49.731Z,84.98
2017-05-12T05:41:15.210Z,85.02
2017-05-12T05:41:40.681Z,84.92
2017-05-12T05:42:06.135Z,84.45
2017-05-12T05:42:31.641Z,84.69
2017-05-12T05:42:57.079Z,84.74
2017-05-12T05:43:22.561Z,84.55
2017-05-12T05:43:48.041Z,84.55
2017-05-12T05:44:13.512Z,84.45
2017-05-12T05:44:38.985Z,84.16
2017-05-12T05:45:04.464Z,84.06
2017-05-12T05:45:29.954Z,83.97
2017-05-12T05:45:55.407Z,83.87
2017-05-12T05:46:20.895Z,83.97
2017-05-12T05:46:46.383Z,84.16
2017-05-12T05:47:11.848Z,84.64
2017-05-12T05:47:37.329Z,84.45
2017-05-12T05:48:02.799Z,84.83
2017-05-12T05:48:28.271Z,84.83
2017-05-12T05:48:53.749Z,84.64
2017-05-12T05:49:19.237Z,85.21
2017-05-12T05:49:44.692Z,85.21
2017-05-12T05:50:10.169Z,85.31
2017-05-12T05:50:35.653Z,85.21
2017-05-12T05:51:01.140Z,84.92
2017-05-12T05:51:26.573Z,85.21
2017-05-12T05:51:52.074Z,85.21
2017-05-12T05:52:17.537Z,85.21
2017-05-12T05:52:43.017Z,84.74
2017-05-12T05:53:08.494Z,84.35
2017-05-12T05:53:33.953Z,83.59
2017-05-12T05:53:59.456Z,83.78
2017-05-12T05:54:24.924Z,84.16
2017-05-12T05:54:50.406Z,84.26
2017-05-12T05:55:15.883Z,84.16
2017-05-12T05:55:41.386Z,84.16
2017-05-12T05:56:06.851Z,84.64
2017-05-12T05:56:32.320Z,84.64
2017-05-12T05:56:57.828Z,84.45
2017-05-12T05:57:23.309Z,84.64
2017-05-12T05:57:48.775Z,84.45
2017-05-12T05:58:14.236Z,84.26
2017-05-12T05:58:39.729Z,83.87
2017-05-12T05:59:05.190Z,84.26
2017-05-12T05:59:30.684Z,84.45
2017-05-12T05:59:56.127Z,84.06
2017-05-12T06:00:21.589Z,84.45
2017-05-12T06:00:47.063Z,84.16
2017-05-12T06:01:12.577Z,84.64
2017-05-12T06:01:38.048Z,84.55
2017-05-12T06:02:03.510Z,84.26
2017-05-12T06:02:29.000Z,84.26
2017-05-12T06:02:54.473Z,84.26
2017-05-12T06:03:19.933Z,84.35
2017-05-12T06:03:45.415Z,84.45
2017-05-12T06:04:10.876Z,84.55
2017-05-12T06:04:36.370Z,84.55
2017-05-12T06:05:01.843Z,84.45
2017-05-12T06:05:27.323Z,84.55
2017-05-12T06:05:52.811Z,84.64
2017-05-12T06:06:18.303Z,84.55
2017-05-12T06:06:43.775Z,84.74
2017-05-12T06:07:09.262Z,84.64
2017-05-12T06:07:34.740Z,84.64
2017-05-12T06:08:00.235Z,84.83
2017-05-12T06:08:25.725Z,84.55
2017-05-12T06:08:51.223Z,84.35
2017-05-12T06:09:16.718Z,84.55
2017-05-12T06:09:42.228Z,84.64
2017-05-12T06:10:07.679Z,84.83
2017-05-12T06:10:33.147Z,85.31
2017-05-12T06:10:58.637Z,85.21
2017-05-12T06:11:24.139Z,85.31
2017-05-12T06:11:49.636Z,85.21
2017-05-12T06:12:15.108Z,85.21
2017-05-12T06:12:40.597Z,85.31
2017-05-12T06:13:06.089Z,84.92
2017-05-12T06:13:31.560Z,85.41
2017-05-12T06:13:57.041Z,84.92
2017-05-12T06:14:22.516Z,85.21
2017-05-12T06:14:48.007Z,85.12
2017-05-12T06:15:13.496Z,84.92
2017-05-12T06:15:38.979Z,85.5
2017-05-12T06:16:04.469Z,85.21
2017-05-12T06:16:29.986Z,85.6
2017-05-12T06:16:55.459Z,85.69
2017-05-12T06:17:20.960Z,85.79
2017-05-12T06:17:46.442Z,85.6
2017-05-12T06:18:11.895Z,85.31
2017-05-12T06:18:37.386Z,85.41
2017-05-12T06:19:02.875Z,85.6
2017-05-12T06:19:28.363Z,85.88
2017-05-12T06:19:53.908Z,85.5
2017-05-12T06:20:19.320Z,85.88
2017-05-12T06:20:44.798Z,85.69
2017-05-12T06:21:10.259Z,86.08
2017-05-12T06:21:35.712Z,85.98
2017-05-12T06:22:01.239Z,85.98
2017-05-12T06:22:26.669Z,85.79
2017-05-12T06:22:52.180Z,86.17
2017-05-12T06:23:17.680Z,85.69
2017-05-12T06:23:43.131Z,86.46
2017-05-12T06:24:08.670Z,86.36
2017-05-12T06:24:34.135Z,86.41
2017-05-12T06:24:59.609Z,86.94
2017-05-12T06:25:25.098Z,86.8
2017-05-12T06:25:50.607Z,86.46
2017-05-12T06:26:16.065Z,86.9
2017-05-12T06:26:41.542Z,87.03
2017-05-12T06:27:07.006Z,86.8
2017-05-12T06:27:32.480Z,86.9
2017-05-12T06:27:57.963Z,87.37
2017-05-12T06:28:23.494Z,87.47
2017-05-12T06:28:48.959Z,87.37
2017-05-12T06:29:14.463Z,87.56
2017-05-12T06:29:39.958Z,87.76
2017-05-12T06:30:05.464Z,87.66
2017-05-12T06:30:30.935Z,88.04
2017-05-12T06:30:56.402Z,87.76
2017-05-12T06:31:21.856Z,87.08
2017-05-12T06:31:47.309Z,88.13
2017-05-12T06:32:12.772Z,88.04
2017-05-12T06:32:38.253Z,87.95
2017-05-12T06:33:03.762Z,87.95
2017-05-12T06:33:29.213Z,87.76
2017-05-12T06:33:54.684Z,87.85
2017-05-12T06:34:20.160Z,87.85
2017-05-12T06:34:45.610Z,88.33
2017-05-12T06:35:11.086Z,88.52
2017-05-12T06:35:36.546Z,88.04
2017-05-12T06:36:01.996Z,88.52
2017-05-12T06:36:27.475Z,88.71
2017-05-12T06:36:52.947Z,88.23
2017-05-12T06:37:18.458Z,88.71
2017-05-12T06:37:43.909Z,88.23
2017-05-12T06:38:09.400Z,88.13
2017-05-12T06:38:34.884Z,88.13
2017-05-12T06:39:00.380Z,88.33
2017-05-12T06:39:25.812Z,88.71
2017-05-12T06:39:51.301Z,88.33
2017-05-12T06:40:16.758Z,87.66
2017-05-12T06:40:42.235Z,88.04
2017-05-12T06:41:07.722Z,87.95
2017-05-12T06:41:33.184Z,88.13
2017-05-12T06:41:58.663Z,88.23
2017-05-12T06:42:24.139Z,88.23
2017-05-12T06:42:49.630Z,87.76
2017-05-12T06:43:15.134Z,88.62
2017-05-12T06:43:40.592Z,88.33
2017-05-12T06:44:06.049Z,88.33
2017-05-12T06:44:31.522Z,88.43
2017-05-12T06:44:56.993Z,88.13
2017-05-12T06:45:22.470Z,88.04
2017-05-12T06:45:47.922Z,87.85
2017-05-12T06:46:13.413Z,88.52
2017-05-12T06:46:38.847Z,88.43
2017-05-12T06:47:04.335Z,89
2017-05-12T06:47:29.827Z,88.52
2017-05-12T06:47:55.287Z,89.19
2017-05-12T06:48:20.754Z,89.29
2017-05-12T06:48:46.228Z,89.09
2017-05-12T06:49:11.725Z,88.62
2017-05-12T06:49:37.206Z,89.29
2017-05-12T06:50:02.673Z,88.62
2017-05-12T06:50:28.145Z,88.95
2017-05-12T06:50:53.621Z,88.9
2017-05-12T06:51:19.118Z,88.9
2017-05-12T06:51:44.615Z,88.95
2017-05-12T06:52:10.090Z,88.85
2017-05-12T06:52:35.562Z,88.37
2017-05-12T06:53:01.045Z,88.62
2017-05-12T06:53:26.495Z,88.66
2017-05-12T06:53:51.990Z,88.47
2017-05-12T06:54:17.487Z,89.14
2017-05-12T06:54:42.975Z,88.37
2017-05-12T06:55:08.436Z,88.04
2017-05-12T06:55:33.899Z,88.52
2017-05-12T06:55:59.383Z,88.28
2017-05-12T06:56:24.877Z,89.04
2017-05-12T06:56:50.343Z,88.95
2017-05-12T06:57:15.819Z,88.95
2017-05-12T06:57:41.294Z,88.28
2017-05-12T06:58:06.790Z,88.56
2017-05-12T06:58:32.243Z,88.28
2017-05-12T06:58:57.764Z,88.37
2017-05-12T06:59:23.227Z,88.09
2017-05-12T06:59:48.699Z,88.18
2017-05-12T07:00:14.170Z,88.28
2017-05-12T07:00:39.647Z,87.61
2017-05-12T07:01:05.126Z,87.99
2017-05-12T07:01:30.546Z,87.9
2017-05-12T07:01:56.047Z,88.56
2017-05-12T07:02:21.530Z,88.56
2017-05-12T07:02:46.993Z,88.56
2017-05-12T07:03:12.491Z,88.37
2017-05-12T07:03:37.942Z,88.76
2017-05-12T07:04:03.456Z,88.09
2017-05-12T07:04:28.934Z,88.28
2017-05-12T07:04:54.399Z,88.18
2017-05-12T07:05:19.866Z,88.18
2017-05-12T07:05:45.340Z,88.09
2017-05-12T07:06:10.812Z,87.99
2017-05-12T07:06:36.277Z,88.18
2017-05-12T07:07:01.759Z,87.9
2017-05-12T07:07:27.261Z,87.32
2017-05-12T07:07:52.744Z,87.51
2017-05-12T07:08:18.235Z,86.94
2017-05-12T07:08:43.700Z,87.9
2017-05-12T07:09:09.180Z,87.51
2017-05-12T07:09:34.660Z,87.51
2017-05-12T07:10:00.149Z,88.09
2017-05-12T07:10:25.633Z,88.18
2017-05-12T07:10:51.113Z,88.28
2017-05-12T07:11:16.608Z,87.99
2017-05-12T07:11:42.120Z,88.37
2017-05-12T07:12:07.584Z,87.9
2017-05-12T07:12:33.050Z,87.9
2017-05-12T07:12:58.555Z,88.18
2017-05-12T07:13:24.004Z,88.66
2017-05-12T07:13:49.515Z,88.56
2017-05-12T07:14:14.973Z,88.95
2017-05-12T07:14:40.448Z,88.76
2017-05-12T07:15:05.920Z,89.23
2017-05-12T07:15:31.401Z,89.23
2017-05-12T07:15:56.895Z,89.23
2017-05-12T07:16:22.389Z,89.33
2017-05-12T07:16:47.861Z,88.47
2017-05-12T07:17:13.335Z,88.28
2017-05-12T07:17:38.835Z,88.56
2017-05-12T07:18:04.318Z,89.04
2017-05-12T07:18:29.791Z,89.04
2017-05-12T07:18:55.260Z,89.14
2017-05-12T07:19:20.735Z,89.04
2017-05-12T07:19:46.223Z,88.56
2017-05-12T07:20:11.684Z,88.85
2017-05-12T07:20:37.141Z,88.85
2017-05-12T07:21:02.643Z,88.66
2017-05-12T07:21:28.111Z,88.95
2017-05-12T07:21:53.578Z,88.76
2017-05-12T07:22:19.050Z,88.66
2017-05-12T07:22:44.506Z,88.95
2017-05-12T07:23:09.987Z,89.04
2017-05-12T07:23:35.453Z,89.14
2017-05-12T07:24:00.945Z,88.28
2017-05-12T07:24:26.432Z,88.47
2017-05-12T07:24:51.929Z,88.47
2017-05-12T07:25:17.388Z,88.56
2017-05-12T07:25:42.879Z,88.28
2017-05-12T07:26:08.322Z,88.42
2017-05-12T07:26:33.792Z,88.47
2017-05-12T07:26:59.314Z,88.76
2017-05-12T07:27:24.772Z,88.8
2017-05-12T07:27:50.228Z,88.47
2017-05-12T07:28:15.723Z,88.23
2017-05-12T07:28:41.199Z,88.13
2017-05-12T07:29:06.677Z,87.99
2017-05-12T07:29:32.177Z,88.03
2017-05-12T07:29:57.638Z,88.32
2017-05-12T07:30:23.115Z,88.8
2017-05-12T07:30:48.618Z,88.66
2017-05-12T07:31:14.103Z,88.42
2017-05-12T07:31:39.617Z,88.13
2017-05-12T07:32:05.100Z,87.94
2017-05-12T07:32:30.596Z,87.7
2017-05-12T07:32:56.068Z,88.18
2017-05-12T07:33:21.538Z,88.47
2017-05-12T07:33:47.020Z,88.47
2017-05-12T07:34:12.522Z,88.66
2017-05-12T07:34:37.996Z,88.85
2017-05-12T07:35:03.459Z,87.65
2017-05-12T07:35:28.930Z,87.9
2017-05-12T07:35:54.447Z,88.09
2017-05-12T07:36:19.887Z,87.99
2017-05-12T07:36:45.364Z,88.37
2017-05-12T07:37:10.863Z,87.99
2017-05-12T07:37:36.329Z,88.66
2017-05-12T07:38:01.803Z,88.95
2017-05-12T07:38:27.290Z,88.66
2017-05-12T07:38:52.764Z,88.95
2017-05-12T07:39:18.256Z,89.14
2017-05-12T07:39:43.756Z,89.33
2017-05-12T07:40:09.212Z,89.33
2017-05-12T07:40:34.692Z,89.33
2017-05-12T07:41:00.176Z,89.04
2017-05-12T07:41:25.651Z,89.04
2017-05-12T07:41:51.127Z,89.33
2017-05-12T07:42:16.594Z,88.95
2017-05-12T07:42:42.070Z,89.04
2017-05-12T07:43:07.555Z,89.04
2017-05-12T07:43:33.050Z,88.76
2017-05-12T07:43:58.528Z,89.14
2017-05-12T07:44:24.009Z,88.85
2017-05-12T07:44:49.477Z,88.28
2017-05-12T07:45:14.973Z,88.47
2017-05-12T07:45:40.483Z,88.76
2017-05-12T07:46:05.999Z,88.56
2017-05-12T07:46:31.463Z,89.14
2017-05-12T07:46:56.949Z,89.33
2017-05-12T07:47:22.446Z,89.04
2017-05-12T07:47:47.935Z,89.04
2017-05-12T07:48:13.393Z,89.43
2017-05-12T07:48:38.867Z,89.43
2017-05-12T07:49:04.378Z,89.14
2017-05-12T07:49:29.865Z,89.23
2017-05-12T07:49:55.350Z,89.14
2017-05-12T07:50:20.845Z,89.23
2017-05-12T07:50:46.341Z,89.14
2017-05-12T07:51:11.789Z,89.33
2017-05-12T07:51:37.267Z,89.52
2017-05-12T07:52:02.740Z,90
2017-05-12T07:52:28.210Z,90.29
2017-05-12T07:52:53.669Z,89.33
2017-05-12T07:53:19.183Z,89.9
2017-05-12T07:53:44.658Z,90.29
2017-05-12T07:54:10.125Z,90.09
2017-05-12T07:54:35.668Z,90.19
2017-05-12T07:55:01.107Z,90.96
2017-05-12T07:55:26.581Z,90.67
2017-05-12T07:55:52.040Z,90.09
2017-05-12T07:56:17.517Z,90.19
2017-05-12T07:56:42.989Z,90.39
2017-05-12T07:57:08.452Z,90.86
2017-05-12T07:57:34.006Z,91.44
2017-05-12T07:57:59.476Z,91.44
2017-05-12T07:58:24.952Z,91.15
2017-05-12T07:58:50.419Z,91.44
2017-05-12T07:59:15.884Z,91.53
2017-05-12T07:59:41.324Z,91.25
2017-05-12T08:00:06.799Z,91.53
2017-05-12T08:00:32.291Z,92.11
2017-05-12T08:00:57.798Z,90.67
2017-05-12T08:01:23.281Z,90.86
2017-05-12T08:01:50.436Z,90.86
2017-05-12T08:02:15.915Z,91.44
2017-05-12T08:02:41.381Z,91.72
2017-05-12T08:03:06.846Z,91.05
2017-05-12T08:03:32.348Z,90.67
2017-05-12T08:03:57.829Z,91.15
2017-05-12T08:04:23.327Z,91.05
2017-05-12T08:04:48.786Z,91.44
2017-05-12T08:05:14.282Z,91.25
2017-05-12T08:05:39.732Z,91.63
2017-05-12T08:06:05.193Z,92.01
2017-05-12T08:06:30.678Z,91.53
2017-05-12T08:06:56.166Z,91.92
2017-05-12T08:07:21.622Z,92.11
2017-05-12T08:07:47.123Z,91.53
2017-05-12T08:08:12.576Z,91.92
2017-05-12T08:08:38.051Z,91.53
2017-05-12T08:09:03.536Z,91.53
2017-05-12T08:09:28.996Z,92.11
2017-05-12T08:09:54.490Z,91.34
2017-05-12T08:10:19.995Z,91.92
2017-05-12T08:10:45.481Z,91.72
2017-05-12T08:11:10.973Z,91.34
2017-05-12T08:11:36.463Z,92.11
2017-05-12T08:12:01.940Z,92.01
2017-05-12T08:12:27.429Z,91.92
2017-05-12T08:12:52.917Z,91.72
2017-05-12T08:13:18.395Z,91.63
2017-05-12T08:13:43.885Z,91.82
2017-05-12T08:14:09.366Z,92.01
2017-05-12T08:14:34.839Z,91.44
2017-05-12T08:15:00.325Z,91.72
2017-05-12T08:15:25.791Z,91.63
2017-05-12T08:15:51.240Z,91.63
2017-05-12T08:16:16.722Z,91.44
2017-05-12T08:16:42.180Z,90.58
2017-05-12T08:17:07.685Z,90.67
2017-05-12T08:17:33.111Z,91.19
2017-05-12T08:17:58.661Z,91.58
2017-05-12T08:18:24.124Z,91.67
2017-05-12T08:18:49.603Z,90.62
2017-05-12T08:19:15.090Z,90.67
2017-05-12T08:19:40.558Z,90.72
2017-05-12T08:20:06.028Z,91.19
2017-05-12T08:20:31.521Z,91.63
2017-05-12T08:20:57.023Z,91.05
2017-05-12T08:21:22.490Z,91.19
2017-05-12T08:21:47.968Z,91.49
2017-05-12T08:22:13.462Z,91.49
2017-05-12T08:22:38.943Z,91.49
2017-05-12T08:23:04.444Z,90.72
2017-05-12T08:23:29.926Z,90.53
2017-05-12T08:23:55.386Z,90.43
2017-05-12T08:24:20.854Z,90.33
2017-05-12T08:24:46.352Z,90.33
2017-05-12T08:25:11.826Z,90.23
2017-05-12T08:25:37.268Z,90.23
2017-05-12T08:26:02.745Z,90.81
2017-05-12T08:26:28.218Z,90.62
2017-05-12T08:26:53.708Z,90.62
2017-05-12T08:27:19.180Z,91.39
2017-05-12T08:27:44.683Z,90.72
2017-05-12T08:28:10.147Z,91.39
2017-05-12T08:28:35.631Z,91.29
2017-05-12T08:29:01.097Z,91.49
2017-05-12T08:29:26.595Z,91.49
2017-05-12T08:29:52.100Z,91.1
2017-05-12T08:30:17.590Z,91.1
2017-05-12T08:30:43.062Z,90.72
2017-05-12T08:31:08.564Z,90.62
2017-05-12T08:31:34.034Z,90.33
2017-05-12T08:31:59.520Z,90.23
2017-05-12T08:32:25.012Z,90.43
2017-05-12T08:32:50.503Z,89.37
2017-05-12T08:33:15.977Z,89.76
2017-05-12T08:33:41.445Z,89.76
2017-05-12T08:34:06.945Z,89.66
2017-05-12T08:34:32.429Z,90.53
2017-05-12T08:34:57.932Z,89.57
2017-05-12T08:35:23.421Z,90.43
2017-05-12T08:35:48.905Z,90.43
2017-05-12T08:36:14.379Z,89.57
2017-05-12T08:36:39.876Z,89.37
2017-05-12T08:37:05.341Z,89.57
2017-05-12T08:37:30.801Z,89.51
2017-05-12T08:37:56.281Z,90.05
2017-05-12T08:38:21.773Z,89.71
2017-05-12T08:38:47.273Z,90.19
2017-05-12T08:39:12.761Z,89.9
2017-05-12T08:39:38.233Z,89.04
2017-05-12T08:40:03.738Z,87.88
2017-05-12T08:40:29.199Z,88.65
2017-05-12T08:40:54.667Z,88.94
2017-05-12T08:41:20.152Z,88.56
2017-05-12T08:41:45.636Z,88.75
2017-05-12T08:42:11.109Z,89.13
2017-05-12T08:42:36.586Z,88.56
2017-05-12T08:43:02.046Z,88.37
2017-05-12T08:43:27.543Z,88.27
2017-05-12T08:43:53.027Z,87.98
2017-05-12T08:44:18.499Z,87.74
2017-05-12T08:44:43.958Z,87.74
2017-05-12T08:45:09.460Z,87.84
2017-05-12T08:45:34.944Z,87.45
2017-05-12T08:46:00.447Z,87.74
2017-05-12T08:46:25.940Z,87.26
2017-05-12T08:46:51.406Z,87.35
2017-05-12T08:47:16.860Z,87.93
2017-05-12T08:47:42.326Z,86.68
2017-05-12T08:48:07.788Z,85.82
2017-05-12T08:49:06.040Z,86.88
2017-05-12T08:49:31.542Z,87.26
2017-05-12T08:49:56.998Z,87.55
2017-05-12T08:50:22.482Z,87.64
2017-05-12T08:50:47.980Z,87.93
2017-05-12T08:51:13.462Z,87.55
2017-05-12T08:51:38.947Z,87.26
2017-05-12T08:52:04.440Z,87.64
2017-05-12T08:52:29.927Z,87.84
2017-05-12T08:52:55.424Z,87.55
2017-05-12T08:53:20.934Z,87.6
2017-05-12T08:53:46.402Z,87.5
2017-05-12T08:54:11.873Z,87.74
2017-05-12T08:54:37.357Z,87.02
2017-05-12T08:55:02.822Z,87.21
2017-05-12T08:55:28.428Z,87.5
2017-05-12T08:55:53.906Z,87.31
2017-05-12T08:56:19.400Z,87.88
2017-05-12T08:56:44.975Z,87.02
2017-05-12T08:57:10.442Z,87.41
2017-05-12T08:57:35.998Z,87.6
2017-05-12T08:58:01.396Z,87.7
2017-05-12T08:58:26.886Z,87.88
2017-05-12T08:58:52.406Z,87.98
2017-05-12T08:59:18.071Z,87.41
2017-05-12T08:59:43.823Z,87.41
2017-05-12T09:00:09.289Z,87.02
2017-05-12T09:00:34.771Z,87.45
2017-05-12T09:01:00.285Z,87.02
2017-05-12T09:01:25.729Z,87.6
2017-05-12T09:01:51.289Z,87.41
2017-05-12T09:02:16.899Z,87.98
2017-05-12T09:02:42.469Z,87.98
2017-05-12T09:03:08.067Z,87.88
2017-05-12T09:03:33.923Z,87.88
2017-05-12T09:03:59.394Z,88.12
2017-05-12T09:04:24.887Z,87.12
2017-05-12T09:04:50.394Z,87.45
2017-05-12T09:05:15.900Z,87.84
2017-05-12T09:05:41.383Z,87.74
2017-05-12T09:06:06.828Z,87.74
2017-05-12T09:06:32.308Z,88.02
2017-05-12T09:06:57.774Z,88.31
2017-05-12T09:07:23.279Z,88.31
2017-05-12T09:07:48.769Z,88.41
2017-05-12T09:08:14.230Z,88.51
2017-05-12T09:08:39.695Z,88.89
2017-05-12T09:09:05.179Z,88.6
2017-05-12T09:09:30.701Z,88.6
2017-05-12T09:09:56.181Z,88.22
2017-05-12T09:10:21.663Z,88.79
2017-05-12T09:10:47.136Z,88.6
2017-05-12T09:11:12.662Z,88.56
2017-05-12T09:11:38.195Z,88.46
2017-05-12T09:12:03.673Z,88.37
2017-05-12T09:12:29.181Z,88.56
2017-05-12T09:12:54.669Z,89.13
2017-05-12T09:13:20.130Z,89.04
2017-05-12T09:13:45.650Z,89.13
2017-05-12T09:14:11.137Z,89.04
2017-05-12T09:14:36.589Z,89.04
2017-05-12T09:15:02.098Z,89.51
2017-05-12T09:15:27.583Z,89.23
2017-05-12T09:15:53.080Z,89.13
2017-05-12T09:16:18.557Z,89.13
2017-05-12T09:16:44.048Z,89.61
2017-05-12T09:17:09.484Z,89.71
2017-05-12T09:17:34.960Z,89.61
2017-05-12T09:18:00.458Z,89.51
2017-05-12T09:18:25.931Z,89.71
2017-05-12T09:18:51.413Z,89.04
2017-05-12T09:19:16.889Z,89.42
2017-05-12T09:19:42.337Z,89.13
2017-05-12T09:20:07.834Z,89.42
2017-05-12T09:20:33.313Z,89.42
2017-05-12T09:20:58.806Z,89.9
2017-05-12T09:21:24.268Z,89.71
2017-05-12T09:21:49.707Z,90
2017-05-12T09:22:15.229Z,90.86
2017-05-12T09:22:40.700Z,90.76
2017-05-12T09:23:06.200Z,90.86
2017-05-12T09:23:31.716Z,90.95
2017-05-12T09:23:57.147Z,91.1
2017-05-12T09:24:22.613Z,91.05
2017-05-12T09:24:48.055Z,90.76
2017-05-12T09:25:13.544Z,91.19
2017-05-12T09:25:39.012Z,91.96
2017-05-12T09:26:04.480Z,91.96
2017-05-12T09:26:29.951Z,92.35
2017-05-12T09:26:55.433Z,92.92
2017-05-12T09:27:20.926Z,92.44
2017-05-12T09:27:46.419Z,93.16
2017-05-12T09:28:11.886Z,93.35
2017-05-12T09:28:37.350Z,93.16
2017-05-12T09:29:02.818Z,93.44
2017-05-12T09:29:28.308Z,93.63
2017-05-12T09:29:53.791Z,93.54
2017-05-12T09:30:19.298Z,93.93
2017-05-12T09:30:44.765Z,93.16
2017-05-12T09:31:10.216Z,93.06
2017-05-12T09:31:35.695Z,93.06
2017-05-12T09:32:01.241Z,92.1
2017-05-12T09:32:26.870Z,92.77
2017-05-12T09:32:52.330Z,92.82
2017-05-12T09:33:17.797Z,92.72
2017-05-12T09:33:43.282Z,92.24
2017-05-12T09:34:08.754Z,91.77
2017-05-12T09:34:34.246Z,91
2017-05-12T09:34:59.737Z,91.09
2017-05-12T09:35:25.223Z,91.19
2017-05-12T09:35:50.729Z,91.67
2017-05-12T09:36:16.201Z,90.71
2017-05-12T09:36:41.699Z,90.9
2017-05-12T09:37:07.169Z,90.81
2017-05-12T09:37:32.665Z,91.09
2017-05-12T09:37:58.142Z,91.28
2017-05-12T09:38:23.626Z,91
2017-05-12T09:38:49.109Z,90.61
2017-05-12T09:39:14.599Z,90.33
2017-05-12T09:39:40.069Z,90.61
2017-05-12T09:40:05.550Z,89.47
2017-05-12T09:40:31.036Z,89.18
2017-05-12T09:40:56.519Z,89.47
2017-05-12T09:41:22.010Z,89.79
2017-05-12T09:41:47.494Z,90.33
2017-05-12T09:42:12.962Z,89.99
2017-05-12T09:42:38.450Z,90.28
2017-05-12T09:43:03.942Z,90.66
2017-05-12T09:43:29.414Z,90.47
2017-05-12T09:43:54.894Z,89.99
2017-05-12T09:44:20.387Z,89.61
2017-05-12T09:44:45.869Z,89.79
2017-05-12T09:45:11.345Z,90.37
2017-05-12T09:45:36.807Z,89.41
2017-05-12T09:46:02.310Z,89.12
2017-05-12T09:46:27.785Z,87.63
2017-05-12T09:46:53.279Z,87.25
2017-05-12T09:47:18.761Z,87.73
2017-05-12T09:47:44.232Z,87.25
2017-05-12T09:48:09.707Z,87.63
2017-05-12T09:48:35.205Z,87.54
2017-05-12T09:49:00.699Z,87.35
2017-05-12T09:49:26.148Z,85.33
2017-05-12T09:49:51.652Z,85.42
2017-05-12T09:50:17.141Z,85.33
2017-05-12T09:50:42.638Z,85.33
2017-05-12T09:51:08.128Z,85.42
2017-05-12T09:51:33.619Z,84.75
2017-05-12T09:51:59.079Z,84.75
2017-05-12T09:52:24.532Z,85.04
2017-05-12T09:52:50.055Z,85.04
2017-05-12T09:53:15.513Z,83.8
2017-05-12T09:53:41.009Z,83.41
2017-05-12T09:54:06.486Z,83.89
2017-05-12T09:54:31.985Z,83.98
2017-05-12T09:54:57.459Z,84.18
2017-05-12T09:55:22.953Z,84.75
2017-05-12T09:55:48.420Z,84.47
2017-05-12T09:56:13.903Z,84.66
2017-05-12T09:56:39.389Z,84.56
2017-05-12T09:57:04.866Z,84.75
2017-05-12T09:57:30.343Z,84.75
2017-05-12T09:57:55.850Z,84.75
2017-05-12T09:58:21.341Z,84.75
2017-05-12T09:58:46.825Z,85.62
2017-05-12T09:59:12.317Z,85.14
2017-05-12T09:59:37.833Z,85.42
2017-05-12T10:00:03.310Z,85.33
2017-05-12T10:00:28.801Z,84.85
2017-05-12T10:00:54.284Z,84.66
2017-05-12T10:01:19.767Z,84.27
2017-05-12T10:01:45.265Z,84.37
2017-05-12T10:02:10.757Z,83.98
2017-05-12T10:02:36.239Z,83.98
2017-05-12T10:03:01.730Z,83.51
2017-05-12T10:03:27.226Z,83.98
2017-05-12T10:03:52.752Z,84.95
2017-05-12T10:04:18.238Z,84.95
2017-05-12T10:04:43.747Z,85.04
2017-05-12T10:05:09.195Z,84.85
2017-05-12T10:05:34.712Z,84.95
2017-05-12T10:06:00.182Z,84.47
2017-05-12T10:06:25.679Z,84.66
2017-05-12T10:06:51.147Z,84.85
2017-05-12T10:07:16.628Z,85.14
2017-05-12T10:07:42.097Z,84.75
2017-05-12T10:08:07.591Z,84.95
2017-05-12T10:08:33.077Z,85.04
2017-05-12T10:08:58.567Z,85.04
2017-05-12T10:09:24.066Z,85.33
2017-05-12T10:09:49.527Z,85.24
2017-05-12T10:10:15.008Z,84.66
2017-05-12T10:10:40.471Z,84.95
2017-05-12T10:11:05.985Z,84.95
2017-05-12T10:11:31.462Z,83.31
2017-05-12T10:11:56.929Z,83.7
2017-05-12T10:12:22.406Z,83.89
2017-05-12T10:12:47.892Z,84.66
2017-05-12T10:13:13.388Z,85.24